Time;durP1;ratioP1;P1;durP2;ratioP2;P2;SDS_P1;SDS_P2;PMS_P1;PMS_P2;Temp;Humidity;BMP_temperature;BMP_pressure;BME280_temperature;BME280_humidity;BME280_pressure;Samples;Min_cycle;Max_cycle;Signal;HPM_P1;HPM_P2
2021/04/04 00:04:34;;;;;;;78.37;31.77;;;;;;;1.89;80.27;99343.95;4121260;86;21186;-92
2021/04/04 00:10:36;;;;;;;61.35;26.40;;;;;;;1.87;79.94;99343.45;4092200;86;21163;-90
2021/04/04 00:16:37;;;;;;;62.08;28.67;;;;;;;1.83;80.30;99337.64;4111677;86;21177;-91
2021/04/04 00:22:40;;;;;;;80.53;33.75;;;;;;;1.93;79.93;99348.19;4021288;86;21209;-91
2021/04/04 00:28:42;;;;;;;54.18;26.10;;;;;;;1.93;79.93;99348.19;4018975;87;22643;-86
2021/04/04 00:34:43;;;;;;;53.25;26.10;;;;;;;1.83;80.39;99355.98;4004699;87;21417;-83
2021/04/04 00:40:45;;;;;;;54.85;26.75;;;;;;;1.92;80.18;99365.47;3986917;88;21215;-86
2021/04/04 00:46:46;;;;;;;53.78;24.23;;;;;;;1.88;80.47;99361.81;4012106;87;21178;-86
2021/04/04 00:52:48;;;;;;;52.60;24.57;;;;;;;1.77;80.25;99373.97;4013597;87;21205;-83
2021/04/04 00:58:50;;;;;;;45.48;22.82;;;;;;;1.77;80.25;99373.97;4015583;88;21316;-87
2021/04/04 01:04:52;;;;;;;43.85;21.75;;;;;;;1.72;80.22;99380.83;4016183;87;21202;-86
2021/04/04 01:10:54;;;;;;;45.50;22.02;;;;;;;1.75;80.56;99382.38;4001589;88;21626;-86
2021/04/04 01:17:00;;;;;;;37.85;21.50;;;;;;;1.68;80.82;99381.99;3972718;88;21360;-90
2021/04/04 01:23:26;;;;;;;40.52;19.87;;;;;;;1.68;80.68;99387.97;4027310;86;21444;-83
2021/04/04 01:29:28;;;;;;;39.63;18.42;;;;;;;1.68;80.54;99385.27;4009378;86;21251;-87
2021/04/04 01:35:35;;;;;;;40.77;21.23;;;;;;;1.56;80.54;99376.36;4019263;86;21253;-86
2021/04/04 01:41:40;;;;;;;;;;;;;;;1.46;80.91;99376.05;4008759;87;21744;-91
2021/04/04 01:47:43;;;;;;;42.97;21.03;;;;;;;1.57;81.41;99384.69;4011463;86;20324;-91
2021/04/04 01:53:45;;;;;;;48.85;22.27;;;;;;;1.72;81.14;99387.03;4009952;86;22097;-83
2021/04/04 01:59:47;;;;;;;44.00;21.25;;;;;;;1.80;81.05;99390.35;4026272;87;21373;-83
2021/04/04 02:05:52;;;;;;;45.78;22.75;;;;;;;1.82;81.17;99396.22;4013602;86;21344;-86
2021/04/04 02:11:55;;;;;;;48.38;23.62;;;;;;;1.85;81.04;99397.52;4013246;86;21503;-86
2021/04/04 02:17:58;;;;;;;53.60;25.40;;;;;;;1.93;80.93;99396.78;4012834;84;21187;-86
2021/04/04 02:24:04;;;;;;;46.53;23.57;;;;;;;1.88;80.86;99404.43;4002902;86;21527;-87
2021/04/04 02:30:07;;;;;;;51.13;24.47;;;;;;;1.89;80.98;99412.80;4003764;87;21628;-86
2021/04/04 02:36:12;;;;;;;42.33;22.62;;;;;;;1.93;80.85;99413.76;4007170;87;21324;-86
2021/04/04 02:42:18;;;;;;;46.65;23.22;;;;;;;1.97;80.79;99416.11;4001476;87;21198;-91
2021/04/04 02:48:27;;;;;;;45.93;23.00;;;;;;;1.97;80.77;99421.50;4031160;87;21166;-83
2021/04/04 02:54:32;;;;;;;46.55;22.27;;;;;;;1.92;80.64;99422.97;4006594;87;21346;-86
2021/04/04 03:00:40;;;;;;;43.95;22.22;;;;;;;1.95;80.70;99424.25;4013486;87;21222;-87
2021/04/04 03:06:44;;;;;;;46.10;23.27;;;;;;;1.96;80.61;99427.22;4007401;87;21195;-91
2021/04/04 03:12:48;;;;;;;45.85;21.85;;;;;;;1.98;80.65;99420.93;4002524;86;21222;-91
2021/04/04 03:18:52;;;;;;;39.30;19.73;;;;;;;1.97;80.54;99421.50;4029297;86;21210;-91
2021/04/04 03:24:55;;;;;;;44.47;21.10;;;;;;;1.98;80.50;99425.79;4055450;86;21177;-87
2021/04/04 03:38:05;;;;;;;48.58;21.48;;;;;;;1.97;80.74;99435.55;4048497;86;21178;-83
2021/04/04 03:44:10;;;;;;;42.25;20.48;;;;;;;1.97;80.74;99435.55;4055442;87;21324;-83
2021/04/04 03:50:12;;;;;;;48.90;21.40;;;;;;;1.99;80.53;99439.52;4013650;87;21320;-83
2021/04/04 03:56:25;;;;;;;43.73;21.95;;;;;;;1.98;80.32;99433.08;4050705;87;21199;-83
2021/04/04 04:02:27;;;;;;;39.70;19.80;;;;;;;1.94;80.31;99434.27;4029254;86;21352;-84
2021/04/04 04:08:31;;;;;;;42.23;20.32;;;;;;;1.94;80.31;99434.27;4071073;86;21236;-83
2021/04/04 04:14:35;;;;;;;42.55;18.65;;;;;;;1.96;80.27;99439.36;4051421;85;24997;-84
2021/04/04 04:20:39;;;;;;;42.85;19.02;;;;;;;1.92;80.23;99444.58;3956139;88;21242;-84
2021/04/04 04:26:44;;;;;;;48.20;21.50;;;;;;;1.86;80.24;99451.75;3959036;89;21172;-83
2021/04/04 04:32:47;;;;;;;42.38;22.00;;;;;;;1.86;80.24;99451.75;3981213;88;21341;-84
2021/04/04 04:38:51;;;;;;;40.15;20.85;;;;;;;1.78;80.47;99434.39;3959824;88;21349;-83
2021/04/04 04:44:54;;;;;;;37.78;18.32;;;;;;;1.94;80.40;99461.81;3965055;89;21176;-84
2021/04/04 04:50:55;;;;;;;39.85;19.32;;;;;;;1.94;80.40;99461.81;3967704;89;21394;-84
2021/04/04 04:56:58;;;;;;;41.88;20.82;;;;;;;1.91;80.46;99461.08;3960239;87;21202;-84
2021/04/04 05:02:59;;;;;;;42.15;20.62;;;;;;;1.96;80.79;99448.81;3962707;89;21807;-84
2021/04/04 05:09:05;;;;;;;42.43;19.17;;;;;;;2.16;80.54;99467.20;3958325;89;21223;-84
2021/04/04 05:15:07;;;;;;;41.55;18.70;;;;;;;2.20;79.85;99468.17;3963672;89;21369;-84
2021/04/04 05:21:09;;;;;;;39.92;19.85;;;;;;;2.20;79.85;99468.17;4015157;87;21313;-84
2021/04/04 05:27:10;;;;;;;29.90;15.50;;;;;;;2.25;79.93;99475.61;4115272;85;21615;-84
2021/04/04 05:33:12;;;;;;;36.45;15.50;;;;;;;2.19;79.78;99457.95;4078705;86;21170;-84
2021/04/04 05:39:18;;;;;;;32.15;14.05;;;;;;;2.39;79.49;99479.58;4109739;85;21164;-84
2021/04/04 05:45:49;;;;;;;29.23;14.07;;;;;;;2.45;79.42;99472.38;4091665;86;21345;-84
2021/04/04 05:51:56;;;;;;;23.75;11.10;;;;;;;2.38;78.96;99482.83;4075884;87;21241;-84
2021/04/04 05:58:06;;;;;;;25.12;10.53;;;;;;;2.51;79.38;99488.70;4080025;86;21175;-84
2021/04/04 06:04:35;;;;;;;21.30;11.10;;;;;;;2.64;78.72;99499.19;4108996;85;21339;-84
2021/04/04 06:11:06;;;;;;;29.60;14.15;;;;;;;2.68;78.54;99502.84;4080050;86;21623;-84
2021/04/04 06:17:16;;;;;;;28.90;14.75;;;;;;;2.65;78.52;99512.94;3784464;91;25088;-84
2021/04/04 06:23:42;;;;;;;31.97;14.98;;;;;;;2.73;78.66;99509.48;3742835;93;21382;-83
2021/04/04 06:37:36;;;;;;;21.30;8.15;;;;;;;2.78;78.40;99510.70;3742855;94;21702;-83
2021/04/04 06:44:12;;;;;;;17.17;8.15;;;;;;;2.76;77.92;99506.96;3725317;94;21261;-84
2021/04/04 06:50:23;;;;;;;18.73;9.90;;;;;;;2.83;78.20;99507.32;3741564;93;21996;-84
2021/04/04 06:56:36;;;;;;;24.85;14.10;;;;;;;3.00;77.95;99505.23;3739693;94;21324;-84
2021/04/04 07:02:57;;;;;;;24.45;12.50;;;;;;;3.08;77.42;99513.94;3729575;94;21194;-83
2021/04/04 07:09:17;;;;;;;22.55;12.68;;;;;;;3.18;77.61;99518.49;3711085;94;21264;-84
2021/04/04 07:15:46;;;;;;;26.57;14.03;;;;;;;3.29;77.32;99512.23;3738297;93;21700;-84
2021/04/04 07:21:59;;;;;;;21.93;13.50;;;;;;;3.56;77.20;99511.98;3952009;87;34050;-84
2021/04/04 07:28:41;;;;;;;25.20;14.33;;;;;;;4.36;76.97;99516.21;3949701;89;22077;-84
2021/04/04 07:34:54;;;;;;;21.42;11.20;;;;;;;4.63;75.84;99518.56;3949614;89;21156;-84
2021/04/04 07:41:16;;;;;;;15.50;9.55;;;;;;;4.48;75.40;99532.61;3984529;88;21373;-84
2021/04/04 07:47:41;;;;;;;14.80;9.10;;;;;;;4.38;75.27;99531.61;3930757;90;21617;-84
2021/04/04 07:54:12;;;;;;;15.98;7.45;;;;;;;4.26;74.64;99544.98;3899495;90;21289;-85
2021/04/04 08:00:16;;;;;;;13.62;7.55;;;;;;;3.97;73.96;99540.78;3865822;91;21683;-84
2021/04/04 08:14:03;;;;;;;13.50;7.20;;;;;;;4.23;74.33;99538.05;3981996;86;21200;-84
2021/04/04 08:20:30;;;;;;;12.13;7.00;;;;;;;5.16;73.75;99536.23;4479108;77;28620;-87
2021/04/04 08:26:52;;;;;;;11.38;6.58;;;;;;;5.92;73.81;99549.39;4482058;78;21173;-92
2021/04/04 08:33:21;;;;;;;10.85;6.83;;;;;;;6.70;71.25;99548.16;4482023;78;21147;-88
2021/04/04 08:39:27;;;;;;;12.37;6.08;;;;;;;6.33;71.05;99557.55;4478095;78;21166;-84
2021/04/04 08:45:40;;;;;;;11.35;6.28;;;;;;;6.28;70.94;99548.23;4475717;78;21168;-85
2021/04/04 08:51:46;;;;;;;8.93;4.90;;;;;;;6.28;70.33;99544.15;4473319;78;21310;-88
2021/04/04 08:57:50;;;;;;;10.30;4.42;;;;;;;6.63;70.33;99544.63;4481534;78;21114;-88
2021/04/04 09:04:01;;;;;;;8.13;3.70;;;;;;;7.82;69.45;99540.41;4483464;78;21173;-93
2021/04/04 09:10:09;;;;;;;9.03;4.97;;;;;;;8.35;67.84;99527.58;4481548;78;21142;-91
2021/04/04 09:16:12;;;;;;;;;;;;;;;8.45;64.78;99522.97;4482653;78;21163;-88
2021/04/04 09:22:21;;;;;;;10.78;5.37;;;;;;;8.13;63.75;99516.58;4470058;79;20187;-88
2021/04/04 09:28:29;;;;;;;10.20;5.12;;;;;;;8.54;64.77;99519.51;4460305;79;21579;-88
2021/04/04 09:34:34;;;;;;;8.88;4.92;;;;;;;7.93;64.49;99523.80;4466665;78;21218;-87
2021/04/04 09:40:37;;;;;;;10.38;5.87;;;;;;;7.00;64.67;99531.32;4441778;78;21565;-84
2021/04/04 09:46:59;;;;;;;9.45;5.40;;;;;;;6.53;65.13;99529.30;4464825;79;21216;-91
2021/04/04 09:53:02;;;;;;;7.97;5.12;;;;;;;6.44;65.56;99535.39;4459666;79;21134;-94
2021/04/04 09:59:04;;;;;;;10.95;5.83;;;;;;;6.36;64.69;99522.89;4468871;79;21129;-85
2021/04/04 10:05:06;;;;;;;11.70;6.30;;;;;;;6.47;65.48;99519.17;4457607;79;21159;-90
2021/04/04 10:11:15;;;;;;;8.50;3.75;;;;;;;7.96;65.39;99511.41;4464264;79;21141;-89
2021/04/04 10:17:16;;;;;;;11.22;5.40;;;;;;;8.29;63.80;99506.55;4474966;78;21171;-88
2021/04/04 10:23:30;;;;;;;12.60;5.53;;;;;;;7.83;63.24;99518.81;4472539;78;21146;-88
2021/04/04 10:29:31;;;;;;;13.20;5.22;;;;;;;7.39;62.78;99514.33;4477206;78;21133;-88
2021/04/04 10:35:37;;;;;;;10.65;6.15;;;;;;;6.94;63.29;99506.82;4481287;78;21599;-87
2021/04/04 10:41:41;;;;;;;9.50;5.50;;;;;;;6.64;63.16;99504.03;4404277;78;69586;-88
2021/04/04 10:47:44;;;;;;;9.85;5.55;;;;;;;6.37;63.40;99501.35;4403504;79;21394;-88
2021/04/04 10:53:48;;;;;;;11.33;5.55;;;;;;;6.40;63.75;99493.11;4399082;79;21183;-87
2021/04/04 10:59:50;;;;;;;11.43;5.20;;;;;;;6.47;63.33;99489.84;4400019;80;21133;-88
2021/04/04 11:05:53;;;;;;;8.98;4.65;;;;;;;6.54;62.66;99483.28;4394845;79;21111;-88
2021/04/04 11:11:59;;;;;;;9.88;5.30;;;;;;;6.67;62.80;99477.52;4401255;80;21169;-87
2021/04/04 11:18:25;;;;;;;10.00;4.53;;;;;;;6.88;60.71;99469.27;4389748;79;21181;-87
2021/04/04 11:24:27;;;;;;;11.33;4.55;;;;;;;7.04;61.39;99464.20;4386097;81;21713;-88
2021/04/04 11:30:37;;;;;;;8.70;4.55;;;;;;;7.14;60.86;99462.95;4393193;81;21646;-88
2021/04/04 11:36:38;;;;;;;7.03;2.70;;;;;;;7.21;60.68;99453.63;4386220;80;21593;-88
2021/04/04 11:42:46;;;;;;;6.95;3.55;;;;;;;7.63;60.11;99438.58;4387638;81;21582;-88
2021/04/04 11:48:48;;;;;;;5.42;2.92;;;;;;;8.23;59.68;99438.41;4389364;81;21106;-88
2021/04/04 12:01:10;;;;;;;8.35;4.60;;;;;;;8.30;58.00;99424.94;4585203;76;22678;-88
2021/04/04 12:07:15;;;;;;;9.65;4.10;;;;;;;7.99;58.53;99422.11;4480887;78;21203;-88
2021/04/04 12:13:17;;;;;;;7.70;3.30;;;;;;;7.88;58.28;99415.56;4489048;78;21541;-88
2021/04/04 12:19:30;;;;;;;6.70;3.87;;;;;;;8.40;58.55;99399.89;4492671;78;21215;-88
2021/04/04 12:25:32;;;;;;;7.30;2.80;;;;;;;8.36;55.09;99392.20;4493093;78;21147;-88
2021/04/04 12:31:43;;;;;;;8.25;3.98;;;;;;;8.16;55.95;99387.72;4490794;78;21169;-88
2021/04/04 12:37:44;;;;;;;6.05;3.45;;;;;;;7.95;56.50;99381.70;4491103;78;21569;-87
2021/04/04 12:43:46;;;;;;;7.75;2.70;;;;;;;8.89;55.77;99379.86;4484757;78;21166;-87
2021/04/04 12:49:57;;;;;;;6.85;3.22;;;;;;;9.48;53.35;99366.75;4490659;78;21538;-88
2021/04/04 12:55:59;;;;;;;8.58;3.10;;;;;;;9.96;51.22;99356.59;4502528;78;21208;-87
2021/04/04 13:02:03;;;;;;;5.53;2.83;;;;;;;10.03;52.09;99351.27;4483075;78;21156;-87
2021/04/04 13:08:18;;;;;;;4.80;2.67;;;;;;;10.43;52.38;99336.58;4486315;78;21577;-88
2021/04/04 13:14:26;;;;;;;6.28;3.05;;;;;;;10.13;50.50;99329.41;4484252;78;21125;-87
2021/04/04 13:20:28;;;;;;;3.55;2.12;;;;;;;9.46;52.32;99326.12;4482801;78;21714;-87
2021/04/04 13:26:33;;;;;;;8.50;2.52;;;;;;;9.09;51.44;99316.75;4384510;80;21204;-87
2021/04/04 13:32:47;;;;;;;6.95;2.67;;;;;;;8.85;50.72;99324.37;4337793;80;21734;-88
2021/04/04 13:38:52;;;;;;;5.90;3.25;;;;;;;8.41;51.20;99316.89;4350618;80;22572;-88
2021/04/04 13:44:54;;;;;;;6.87;3.00;;;;;;;8.25;51.15;99309.87;4376938;80;21887;-85
2021/04/04 13:50:57;;;;;;;7.83;3.15;;;;;;;8.43;51.33;99305.63;4381463;80;21141;-90
2021/04/04 13:56:58;;;;;;;7.30;3.70;;;;;;;8.96;51.30;99293.44;4300132;81;22427;-84
2021/04/04 14:03:00;;;;;;;5.85;2.65;;;;;;;9.29;48.26;99285.57;4365180;81;21147;-90
2021/04/04 14:09:05;;;;;;;8.85;3.52;;;;;;;9.33;49.99;99271.99;4362369;80;21162;-90
2021/04/04 14:15:08;;;;;;;8.55;4.70;;;;;;;9.72;49.95;99268.08;4357260;80;21146;-88
2021/04/04 14:21:09;;;;;;;11.68;6.08;;;;;;;9.97;48.96;99265.78;4354097;80;21228;-92
2021/04/04 14:27:11;;;;;;;9.20;4.12;;;;;;;10.00;48.89;99260.95;4373132;81;21300;-93
2021/04/04 14:33:12;;;;;;;8.05;4.87;;;;;;;9.87;48.05;99255.43;4352266;80;21163;-88
2021/04/04 14:39:14;;;;;;;6.50;3.17;;;;;;;9.63;47.67;99253.05;4357379;80;21281;-87
2021/04/04 14:45:16;;;;;;;6.85;3.25;;;;;;;9.29;47.70;99249.26;4358861;80;21318;-87
2021/04/04 14:51:17;;;;;;;5.12;2.75;;;;;;;8.90;47.95;99244.36;4359864;80;21170;-84
2021/04/04 14:57:19;;;;;;;9.40;3.85;;;;;;;8.55;47.62;99230.52;4350230;80;21195;-91
2021/04/04 15:03:23;;;;;;;10.18;3.55;;;;;;;8.46;47.36;99223.07;4385500;80;21152;-87
2021/04/04 15:09:24;;;;;;;9.08;3.72;;;;;;;8.34;47.85;99221.27;4380152;81;21311;-92
2021/04/04 15:15:27;;;;;;;18.27;7.53;;;;;;;8.37;47.87;99214.30;4377778;81;21181;-84
2021/04/04 15:21:28;;;;;;;7.17;3.45;;;;;;;8.12;47.48;99205.52;4353560;81;21168;-86
2021/04/04 15:27:30;;;;;;;8.53;3.80;;;;;;;7.89;47.62;99205.92;4383823;80;21198;-91
2021/04/04 15:33:32;;;;;;;6.97;2.85;;;;;;;7.89;47.51;99205.33;4361593;82;22097;-93
2021/04/04 15:39:33;;;;;;;7.78;4.22;;;;;;;7.91;47.73;99181.81;4313011;82;21164;-89
2021/04/04 15:45:36;;;;;;;7.95;3.80;;;;;;;8.14;48.11;99184.70;4316508;81;21145;-86
2021/04/04 15:51:37;;;;;;;11.30;4.25;;;;;;;8.12;47.84;99186.98;4317584;81;21169;-85
2021/04/04 15:57:41;;;;;;;10.23;4.35;;;;;;;8.05;46.92;99170.48;4388540;80;21173;-87
2021/04/04 16:03:43;;;;;;;9.10;4.62;;;;;;;7.98;47.50;99171.09;4383189;80;21636;-87
2021/04/04 16:09:47;;;;;;;8.78;4.50;;;;;;;7.90;47.13;99161.96;4392373;79;21137;-87
2021/04/04 16:15:48;;;;;;;8.95;4.50;;;;;;;7.85;47.89;99151.88;4389369;80;21142;-91
2021/04/04 16:21:49;;;;;;;11.05;4.72;;;;;;;7.58;48.33;99148.70;4397748;80;21124;-91
2021/04/04 16:27:57;;;;;;;8.33;4.67;;;;;;;7.49;48.02;99142.61;4397929;80;21438;-87
2021/04/04 16:33:59;;;;;;;10.30;4.42;;;;;;;7.24;48.35;99148.78;4388939;79;21202;-90
2021/04/04 16:40:00;;;;;;;10.03;4.67;;;;;;;6.88;48.44;99135.91;4392198;80;21186;-92
2021/04/04 16:46:02;;;;;;;13.08;5.90;;;;;;;6.61;49.27;99144.88;4372518;80;21617;-90
2021/04/04 16:52:04;;;;;;;12.93;6.58;;;;;;;6.31;49.26;99134.88;4384246;81;21151;-84
2021/04/04 16:58:06;;;;;;;15.40;6.85;;;;;;;6.00;50.15;99141.46;4390229;80;21676;-88
2021/04/04 17:04:08;;;;;;;14.50;7.12;;;;;;;5.53;50.81;99128.88;4392152;79;21184;-88
2021/04/04 17:10:12;;;;;;;16.12;7.05;;;;;;;5.22;51.36;99119.66;4383164;80;21308;-87
2021/04/04 17:17:07;;;;;;;17.30;7.00;;;;;;;4.99;51.95;99120.64;4391255;79;21661;-93
2021/04/04 17:23:12;;;;;;;21.37;7.62;;;;;;;4.78;51.83;99120.69;4380143;79;21178;-91
2021/04/04 17:29:14;;;;;;;15.58;7.37;;;;;;;4.47;52.70;99119.52;4383327;80;21287;-86
2021/04/04 17:35:16;;;;;;;16.55;8.25;;;;;;;4.13;53.36;99126.02;4383634;81;21173;-91
2021/04/04 17:41:21;;;;;;;21.23;10.03;;;;;;;3.94;53.68;99128.36;4379434;80;21193;-91
2021/04/04 17:47:22;;;;;;;22.30;10.10;;;;;;;3.85;53.81;99130.88;4379611;80;21133;-90
2021/04/04 17:53:24;;;;;;;19.67;9.73;;;;;;;3.68;54.09;99134.45;4376029;80;21565;-90
2021/04/04 17:59:26;;;;;;;27.75;12.23;;;;;;;3.55;54.21;99128.73;4392526;81;21205;-83
2021/04/04 18:11:48;;;;;;;41.65;15.72;;;;;;;3.38;54.90;99126.64;4382427;81;21921;-85
2021/04/04 18:17:49;;;;;;;35.20;16.73;;;;;;;3.30;54.94;99130.98;4374494;79;21654;-85
2021/04/04 18:23:51;;;;;;;35.33;16.70;;;;;;;3.11;55.19;99135.97;4388372;80;21158;-91
2021/04/04 18:29:52;;;;;;;38.13;16.90;;;;;;;2.94;55.48;99132.72;4381678;80;21205;-88
2021/04/04 18:35:54;;;;;;;34.98;14.47;;;;;;;2.84;55.95;99125.52;4385376;81;21241;-90
2021/04/04 18:41:56;;;;;;;48.17;20.70;;;;;;;2.72;57.08;99121.33;4390880;80;21169;-88
2021/04/04 18:47:58;;;;;;;41.10;17.85;;;;;;;2.66;57.20;99124.74;4381974;80;21125;-86
2021/04/04 18:54:00;;;;;;;43.90;18.75;;;;;;;2.50;57.23;99114.20;4382545;80;21321;-83
2021/04/04 19:00:07;;;;;;;41.58;18.50;;;;;;;2.34;57.10;99099.59;4350566;81;21166;-83
2021/04/04 19:06:09;;;;;;;47.80;20.10;;;;;;;2.19;57.83;99101.97;4354237;81;21145;-84
2021/04/04 19:12:11;;;;;;;62.95;26.07;;;;;;;2.10;57.81;99103.88;4353556;81;21193;-85
2021/04/04 19:18:12;;;;;;;65.70;24.67;;;;;;;2.13;57.92;99094.56;4343615;80;21231;-90
2021/04/04 19:24:15;;;;;;;57.73;22.05;;;;;;;2.11;58.22;99092.75;4324869;80;21202;-90
2021/04/04 19:30:23;;;;;;;60.60;24.20;;;;;;;2.04;59.03;99087.02;4344064;80;21208;-90
2021/04/04 19:36:25;;;;;;;53.23;22.90;;;;;;;1.98;59.73;99080.73;4349399;80;21155;-82
2021/04/04 19:42:26;;;;;;;42.80;19.65;;;;;;;1.92;60.39;99076.61;4345601;81;21150;-91
2021/04/04 19:48:28;;;;;;;43.98;19.50;;;;;;;1.84;60.47;99076.03;4353186;80;21189;-86
2021/04/04 19:54:30;;;;;;;40.23;19.55;;;;;;;1.77;60.97;99058.95;4345975;80;21229;-88
2021/04/04 20:00:31;;;;;;;42.45;17.98;;;;;;;1.68;60.48;99055.45;4340280;80;21149;-87
2021/04/04 20:06:34;;;;;;;38.28;16.35;;;;;;;1.63;60.95;99053.48;4395310;80;21161;-87
2021/04/04 20:12:35;;;;;;;28.40;15.58;;;;;;;1.51;61.28;99027.09;4391741;79;21164;-87
2021/04/04 20:18:37;;;;;;;32.35;15.00;;;;;;;1.51;61.28;99027.09;4391851;79;21168;-92
2021/04/04 20:24:38;;;;;;;35.88;16.05;;;;;;;1.47;61.91;99008.04;4371704;81;21357;-87
2021/04/04 20:38:09;;;;;;;37.93;16.45;;;;;;;1.54;64.25;99010.28;4330441;77;21185;-83
2021/04/04 20:44:11;;;;;;;34.88;16.90;;;;;;;1.51;63.57;98997.42;4334172;81;21178;-83
2021/04/04 20:50:13;;;;;;;37.55;16.67;;;;;;;1.40;63.15;99000.98;4328167;81;21589;-83
2021/04/04 20:56:16;;;;;;;35.00;16.48;;;;;;;1.19;63.37;98966.84;4342208;81;21169;-90
2021/04/04 21:02:17;;;;;;;37.35;17.60;;;;;;;1.19;63.37;98966.84;4330741;81;21873;-89
2021/04/04 21:08:18;;;;;;;33.85;16.45;;;;;;;1.23;63.41;98976.68;4339814;81;21178;-90
2021/04/04 21:14:20;;;;;;;45.03;18.85;;;;;;;1.20;63.95;98975.16;4340300;81;21163;-90
2021/04/04 21:20:21;;;;;;;40.27;18.50;;;;;;;1.14;64.02;98962.94;4369249;80;21319;-90
2021/04/04 21:26:23;;;;;;;41.50;17.90;;;;;;;1.06;64.05;98955.62;4383506;80;21158;-90
2021/04/04 21:32:25;;;;;;;43.55;19.65;;;;;;;1.00;64.56;98955.52;4394775;80;21190;-87
2021/04/04 21:38:26;;;;;;;38.40;18.20;;;;;;;0.96;64.76;98949.16;4394710;80;21308;-85
2021/04/04 21:44:28;;;;;;;37.77;15.73;;;;;;;0.85;64.43;98943.27;4401362;80;21154;-85
2021/04/04 21:50:29;;;;;;;37.65;17.55;;;;;;;0.85;65.01;98935.73;4385253;80;21310;-86
2021/04/04 21:57:07;;;;;;;37.40;16.50;;;;;;;0.77;64.98;98926.52;4346933;81;21193;-91
2021/04/04 22:03:08;;;;;;;37.00;16.03;;;;;;;0.71;65.34;98913.49;4332817;81;21155;-82
2021/04/04 22:09:10;;;;;;;38.93;16.30;;;;;;;0.62;65.62;98905.94;4344790;81;21183;-84
2021/04/04 22:15:13;;;;;;;39.37;18.37;;;;;;;0.52;65.65;98904.89;4312183;81;21177;-82
2021/04/04 22:21:15;;;;;;;42.77;19.53;;;;;;;0.43;65.92;98898.66;4351800;81;21137;-84
2021/04/04 22:27:23;;;;;;;49.13;20.77;;;;;;;0.30;65.93;98890.15;4331203;81;21506;-86
2021/04/04 22:33:24;;;;;;;44.00;20.37;;;;;;;0.19;66.08;98880.18;4338100;81;21224;-86
2021/04/04 22:39:26;;;;;;;51.63;20.37;;;;;;;0.13;66.42;98871.20;4237099;83;21306;-87
2021/04/04 22:45:28;;;;;;;48.40;23.80;;;;;;;0.13;66.79;98863.13;4276781;82;21163;-86
2021/04/04 22:51:29;;;;;;;45.90;21.67;;;;;;;0.11;66.94;98854.59;4243480;83;21614;-86
2021/04/04 22:57:31;;;;;;;48.33;21.23;;;;;;;0.07;67.40;98845.52;4273320;82;21179;-86
2021/04/04 23:03:32;;;;;;;41.30;20.43;;;;;;;0.02;67.73;98837.61;4236511;82;21136;-83
2021/04/04 23:09:34;;;;;;;47.77;21.20;;;;;;;0.02;67.67;98828.97;4218496;82;21628;-83
2021/04/04 23:15:35;;;;;;;45.10;20.83;;;;;;;-0.10;68.03;98808.03;4266577;82;21161;-83
2021/04/04 23:21:37;;;;;;;44.83;22.73;;;;;;;-0.09;67.89;98794.02;4277658;82;21146;-83
2021/04/04 23:27:38;;;;;;;44.90;20.57;;;;;;;-0.22;67.84;98787.63;4271672;81;21179;-91
2021/04/04 23:33:40;;;;;;;44.70;20.83;;;;;;;-0.26;68.03;98775.91;4275955;81;21173;-90
2021/04/04 23:39:41;;;;;;;40.73;19.20;;;;;;;-0.24;68.47;98756.22;4342286;81;21179;-90
2021/04/04 23:45:43;;;;;;;42.60;19.70;;;;;;;-0.29;68.28;98751.52;4352207;81;21181;-86
2021/04/04 23:51:48;;;;;;;40.57;18.00;;;;;;;-0.32;68.31;98754.83;4331696;81;21637;-90
2021/04/04 23:57:51;;;;;;;32.63;14.63;;;;;;;-0.34;68.47;98732.81;4339685;81;21218;-89
